sensor_id;sensor_type;location;lat;lon;timestamp;P1;durP1;ratioP1;P2;durP2;ratioP2
43529;SDS011;55654;50.966;6.878;2022-11-20T00:02:26;22.97;;;14.73;;
43529;SDS011;55654;50.966;6.878;2022-11-20T00:04:52;23.77;;;14.90;;
43529;SDS011;55654;50.966;6.878;2022-11-20T00:07:18;24.43;;;15.07;;
43529;SDS011;55654;50.966;6.878;2022-11-20T00:09:44;25.33;;;15.57;;
43529;SDS011;55654;50.966;6.878;2022-11-20T00:12:10;29.07;;;15.40;;
43529;SDS011;55654;50.966;6.878;2022-11-20T00:14:36;25.53;;;15.10;;
43529;SDS011;55654;50.966;6.878;2022-11-20T00:17:02;31.33;;;16.47;;
43529;SDS011;55654;50.966;6.878;2022-11-20T00:19:28;23.40;;;15.20;;
43529;SDS011;55654;50.966;6.878;2022-11-20T00:21:54;29.53;;;15.07;;
43529;SDS011;55654;50.966;6.878;2022-11-20T00:24:20;23.33;;;15.17;;
43529;SDS011;55654;50.966;6.878;2022-11-20T00:26:46;25.87;;;14.93;;
43529;SDS011;55654;50.966;6.878;2022-11-20T00:29:17;25.23;;;15.83;;
43529;SDS011;55654;50.966;6.878;2022-11-20T00:31:43;24.23;;;15.37;;
43529;SDS011;55654;50.966;6.878;2022-11-20T00:34:09;24.97;;;16.33;;
43529;SDS011;55654;50.966;6.878;2022-11-20T00:36:35;26.40;;;15.37;;
43529;SDS011;55654;50.966;6.878;2022-11-20T00:39:04;24.10;;;15.77;;
43529;SDS011;55654;50.966;6.878;2022-11-20T00:41:30;25.10;;;15.97;;
43529;SDS011;55654;50.966;6.878;2022-11-20T00:43:56;26.67;;;16.63;;
43529;SDS011;55654;50.966;6.878;2022-11-20T00:46:23;26.57;;;15.40;;
43529;SDS011;55654;50.966;6.878;2022-11-20T00:48:49;22.93;;;14.73;;
43529;SDS011;55654;50.966;6.878;2022-11-20T00:51:16;24.83;;;14.83;;
43529;SDS011;55654;50.966;6.878;2022-11-20T00:53:43;21.90;;;14.07;;
43529;SDS011;55654;50.966;6.878;2022-11-20T00:56:12;23.57;;;14.40;;
43529;SDS011;55654;50.966;6.878;2022-11-20T00:58:39;30.07;;;16.97;;
43529;SDS011;55654;50.966;6.878;2022-11-20T01:03:37;24.77;;;15.87;;
43529;SDS011;55654;50.966;6.878;2022-11-20T01:06:05;26.00;;;16.07;;
43529;SDS011;55654;50.966;6.878;2022-11-20T01:08:32;24.57;;;15.33;;
43529;SDS011;55654;50.966;6.878;2022-11-20T01:11:02;26.33;;;14.83;;
43529;SDS011;55654;50.966;6.878;2022-11-20T01:13:30;24.20;;;15.83;;
43529;SDS011;55654;50.966;6.878;2022-11-20T01:18:31;29.23;;;15.17;;
43529;SDS011;55654;50.966;6.878;2022-11-20T01:21:04;25.03;;;16.37;;
43529;SDS011;55654;50.966;6.878;2022-11-20T01:23:34;27.20;;;15.57;;
43529;SDS011;55654;50.966;6.878;2022-11-20T01:26:01;24.07;;;14.40;;
43529;SDS011;55654;50.966;6.878;2022-11-20T01:28:28;23.27;;;15.13;;
43529;SDS011;55654;50.966;6.878;2022-11-20T01:30:54;26.23;;;15.00;;
43529;SDS011;55654;50.966;6.878;2022-11-20T01:33:22;24.40;;;15.33;;
43529;SDS011;55654;50.966;6.878;2022-11-20T01:35:48;24.83;;;15.30;;
43529;SDS011;55654;50.966;6.878;2022-11-20T01:38:15;24.07;;;15.23;;
43529;SDS011;55654;50.966;6.878;2022-11-20T01:40:41;22.60;;;14.80;;
43529;SDS011;55654;50.966;6.878;2022-11-20T01:43:17;26.50;;;15.83;;
43529;SDS011;55654;50.966;6.878;2022-11-20T01:51:29;25.37;;;15.83;;
43529;SDS011;55654;50.966;6.878;2022-11-20T01:53:57;26.80;;;15.77;;
43529;SDS011;55654;50.966;6.878;2022-11-20T01:56:24;33.20;;;16.37;;
43529;SDS011;55654;50.966;6.878;2022-11-20T01:58:54;24.70;;;15.43;;
43529;SDS011;55654;50.966;6.878;2022-11-20T02:01:22;25.50;;;15.83;;
43529;SDS011;55654;50.966;6.878;2022-11-20T02:03:48;26.07;;;16.23;;
43529;SDS011;55654;50.966;6.878;2022-11-20T02:08:43;27.37;;;16.40;;
43529;SDS011;55654;50.966;6.878;2022-11-20T02:11:09;27.37;;;16.03;;
43529;SDS011;55654;50.966;6.878;2022-11-20T02:13:37;24.80;;;15.20;;
43529;SDS011;55654;50.966;6.878;2022-11-20T02:16:17;24.45;;;15.63;;
43529;SDS011;55654;50.966;6.878;2022-11-20T02:18:44;26.07;;;16.20;;
43529;SDS011;55654;50.966;6.878;2022-11-20T02:24:02;26.20;;;15.90;;
43529;SDS011;55654;50.966;6.878;2022-11-20T02:26:29;25.17;;;15.10;;
43529;SDS011;55654;50.966;6.878;2022-11-20T02:28:56;26.70;;;15.50;;
43529;SDS011;55654;50.966;6.878;2022-11-20T02:31:22;25.40;;;15.80;;
43529;SDS011;55654;50.966;6.878;2022-11-20T02:33:53;25.03;;;15.50;;
43529;SDS011;55654;50.966;6.878;2022-11-20T02:36:19;26.77;;;15.53;;
43529;SDS011;55654;50.966;6.878;2022-11-20T02:38:48;24.53;;;14.90;;
43529;SDS011;55654;50.966;6.878;2022-11-20T02:41:15;26.37;;;16.43;;
43529;SDS011;55654;50.966;6.878;2022-11-20T02:43:41;24.70;;;15.60;;
43529;SDS011;55654;50.966;6.878;2022-11-20T02:46:07;22.20;;;14.07;;
43529;SDS011;55654;50.966;6.878;2022-11-20T02:48:33;25.13;;;14.93;;
43529;SDS011;55654;50.966;6.878;2022-11-20T02:50:59;26.00;;;16.23;;
43529;SDS011;55654;50.966;6.878;2022-11-20T02:53:25;27.30;;;16.10;;
43529;SDS011;55654;50.966;6.878;2022-11-20T02:55:51;25.27;;;16.07;;
43529;SDS011;55654;50.966;6.878;2022-11-20T02:58:17;29.27;;;17.07;;
43529;SDS011;55654;50.966;6.878;2022-11-20T03:00:43;24.70;;;15.50;;
43529;SDS011;55654;50.966;6.878;2022-11-20T03:03:09;26.83;;;17.23;;
43529;SDS011;55654;50.966;6.878;2022-11-20T03:05:35;26.73;;;16.67;;
43529;SDS011;55654;50.966;6.878;2022-11-20T03:08:04;27.47;;;16.33;;
43529;SDS011;55654;50.966;6.878;2022-11-20T03:10:30;26.10;;;15.60;;
43529;SDS011;55654;50.966;6.878;2022-11-20T03:12:56;23.13;;;15.70;;
43529;SDS011;55654;50.966;6.878;2022-11-20T03:15:22;26.07;;;15.90;;
43529;SDS011;55654;50.966;6.878;2022-11-20T03:17:49;24.90;;;15.03;;
43529;SDS011;55654;50.966;6.878;2022-11-20T03:20:15;26.30;;;15.20;;
43529;SDS011;55654;50.966;6.878;2022-11-20T03:22:41;25.37;;;15.83;;
43529;SDS011;55654;50.966;6.878;2022-11-20T03:25:07;25.90;;;15.87;;
43529;SDS011;55654;50.966;6.878;2022-11-20T03:27:33;25.83;;;16.07;;
43529;SDS011;55654;50.966;6.878;2022-11-20T03:30:00;24.20;;;15.00;;
43529;SDS011;55654;50.966;6.878;2022-11-20T03:32:26;23.53;;;15.27;;
43529;SDS011;55654;50.966;6.878;2022-11-20T03:34:52;25.87;;;15.37;;
43529;SDS011;55654;50.966;6.878;2022-11-20T03:37:18;23.37;;;15.73;;
43529;SDS011;55654;50.966;6.878;2022-11-20T03:39:44;25.33;;;15.33;;
43529;SDS011;55654;50.966;6.878;2022-11-20T03:42:10;23.53;;;15.30;;
43529;SDS011;55654;50.966;6.878;2022-11-20T03:44:56;28.90;;;16.03;;
43529;SDS011;55654;50.966;6.878;2022-11-20T03:47:22;24.80;;;15.17;;
43529;SDS011;55654;50.966;6.878;2022-11-20T03:49:48;25.57;;;16.07;;
43529;SDS011;55654;50.966;6.878;2022-11-20T03:52:14;27.63;;;16.10;;
43529;SDS011;55654;50.966;6.878;2022-11-20T03:54:40;26.10;;;15.37;;
43529;SDS011;55654;50.966;6.878;2022-11-20T03:57:06;28.40;;;16.80;;
43529;SDS011;55654;50.966;6.878;2022-11-20T03:59:32;26.70;;;15.97;;
43529;SDS011;55654;50.966;6.878;2022-11-20T04:01:58;28.57;;;15.90;;
43529;SDS011;55654;50.966;6.878;2022-11-20T04:04:24;25.73;;;15.40;;
43529;SDS011;55654;50.966;6.878;2022-11-20T04:06:50;25.50;;;16.07;;
43529;SDS011;55654;50.966;6.878;2022-11-20T04:09:16;23.60;;;15.50;;
43529;SDS011;55654;50.966;6.878;2022-11-20T04:11:42;25.43;;;16.17;;
43529;SDS011;55654;50.966;6.878;2022-11-20T04:14:13;27.37;;;16.60;;
43529;SDS011;55654;50.966;6.878;2022-11-20T04:16:42;27.80;;;16.53;;
43529;SDS011;55654;50.966;6.878;2022-11-20T04:19:12;27.47;;;16.00;;
43529;SDS011;55654;50.966;6.878;2022-11-20T04:21:38;28.87;;;17.10;;
43529;SDS011;55654;50.966;6.878;2022-11-20T04:24:04;27.03;;;16.97;;
43529;SDS011;55654;50.966;6.878;2022-11-20T04:26:30;26.93;;;16.93;;
43529;SDS011;55654;50.966;6.878;2022-11-20T04:28:57;31.17;;;18.53;;
43529;SDS011;55654;50.966;6.878;2022-11-20T04:31:24;28.37;;;17.50;;
43529;SDS011;55654;50.966;6.878;2022-11-20T04:33:50;31.80;;;17.53;;
43529;SDS011;55654;50.966;6.878;2022-11-20T04:38:45;31.93;;;18.87;;
43529;SDS011;55654;50.966;6.878;2022-11-20T04:41:16;30.30;;;18.20;;
43529;SDS011;55654;50.966;6.878;2022-11-20T04:43:46;32.83;;;18.80;;
43529;SDS011;55654;50.966;6.878;2022-11-20T04:46:13;31.97;;;17.67;;
43529;SDS011;55654;50.966;6.878;2022-11-20T04:48:39;34.60;;;17.73;;
43529;SDS011;55654;50.966;6.878;2022-11-20T04:51:05;27.37;;;17.13;;
43529;SDS011;55654;50.966;6.878;2022-11-20T04:53:31;27.75;;;17.50;;
43529;SDS011;55654;50.966;6.878;2022-11-20T04:56:01;28.73;;;17.83;;
43529;SDS011;55654;50.966;6.878;2022-11-20T04:58:27;25.80;;;16.17;;
43529;SDS011;55654;50.966;6.878;2022-11-20T05:00:53;27.20;;;17.17;;
43529;SDS011;55654;50.966;6.878;2022-11-20T05:03:19;26.63;;;16.97;;
43529;SDS011;55654;50.966;6.878;2022-11-20T05:05:45;28.33;;;17.63;;
43529;SDS011;55654;50.966;6.878;2022-11-20T05:08:12;26.83;;;16.23;;
43529;SDS011;55654;50.966;6.878;2022-11-20T05:10:40;27.33;;;16.77;;
43529;SDS011;55654;50.966;6.878;2022-11-20T05:13:06;26.17;;;16.87;;
43529;SDS011;55654;50.966;6.878;2022-11-20T05:15:32;25.53;;;16.10;;
43529;SDS011;55654;50.966;6.878;2022-11-20T05:17:57;28.10;;;17.10;;
43529;SDS011;55654;50.966;6.878;2022-11-20T05:20:26;25.53;;;15.63;;
43529;SDS011;55654;50.966;6.878;2022-11-20T05:22:52;28.57;;;17.10;;
43529;SDS011;55654;50.966;6.878;2022-11-20T05:25:18;24.60;;;15.03;;
43529;SDS011;55654;50.966;6.878;2022-11-20T05:27:44;27.03;;;16.57;;
43529;SDS011;55654;50.966;6.878;2022-11-20T05:30:10;24.90;;;15.13;;
43529;SDS011;55654;50.966;6.878;2022-11-20T05:32:36;25.70;;;15.50;;
43529;SDS011;55654;50.966;6.878;2022-11-20T05:35:02;28.50;;;16.03;;
43529;SDS011;55654;50.966;6.878;2022-11-20T05:37:31;26.93;;;16.17;;
43529;SDS011;55654;50.966;6.878;2022-11-20T05:39:59;26.07;;;15.87;;
43529;SDS011;55654;50.966;6.878;2022-11-20T05:42:25;25.87;;;16.97;;
43529;SDS011;55654;50.966;6.878;2022-11-20T05:45:01;25.27;;;15.68;;
43529;SDS011;55654;50.966;6.878;2022-11-20T05:47:28;27.30;;;17.33;;
43529;SDS011;55654;50.966;6.878;2022-11-20T05:49:56;27.00;;;16.10;;
43529;SDS011;55654;50.966;6.878;2022-11-20T05:52:22;29.37;;;16.80;;
43529;SDS011;55654;50.966;6.878;2022-11-20T05:54:48;24.20;;;15.97;;
43529;SDS011;55654;50.966;6.878;2022-11-20T05:57:15;26.60;;;17.00;;
43529;SDS011;55654;50.966;6.878;2022-11-20T05:59:41;28.97;;;17.00;;
43529;SDS011;55654;50.966;6.878;2022-11-20T06:02:07;31.33;;;17.40;;
43529;SDS011;55654;50.966;6.878;2022-11-20T06:04:33;25.77;;;15.57;;
43529;SDS011;55654;50.966;6.878;2022-11-20T06:06:59;28.23;;;16.93;;
43529;SDS011;55654;50.966;6.878;2022-11-20T06:09:25;29.53;;;17.00;;
43529;SDS011;55654;50.966;6.878;2022-11-20T06:11:51;25.23;;;16.70;;
43529;SDS011;55654;50.966;6.878;2022-11-20T06:14:17;25.90;;;16.93;;
43529;SDS011;55654;50.966;6.878;2022-11-20T06:16:45;26.23;;;16.60;;
43529;SDS011;55654;50.966;6.878;2022-11-20T06:19:14;27.87;;;17.40;;
43529;SDS011;55654;50.966;6.878;2022-11-20T06:21:40;26.10;;;16.97;;
43529;SDS011;55654;50.966;6.878;2022-11-20T06:24:06;28.27;;;17.57;;
43529;SDS011;55654;50.966;6.878;2022-11-20T06:26:34;29.07;;;17.90;;
43529;SDS011;55654;50.966;6.878;2022-11-20T06:29:00;28.70;;;17.97;;
43529;SDS011;55654;50.966;6.878;2022-11-20T06:31:26;33.17;;;18.30;;
43529;SDS011;55654;50.966;6.878;2022-11-20T06:33:53;28.27;;;17.93;;
43529;SDS011;55654;50.966;6.878;2022-11-20T06:36:20;29.60;;;18.50;;
43529;SDS011;55654;50.966;6.878;2022-11-20T06:38:46;31.40;;;19.33;;
43529;SDS011;55654;50.966;6.878;2022-11-20T06:41:13;31.67;;;18.73;;
43529;SDS011;55654;50.966;6.878;2022-11-20T06:43:42;29.27;;;18.43;;
43529;SDS011;55654;50.966;6.878;2022-11-20T06:46:09;29.50;;;17.60;;
43529;SDS011;55654;50.966;6.878;2022-11-20T06:48:35;28.83;;;17.77;;
43529;SDS011;55654;50.966;6.878;2022-11-20T06:51:04;31.80;;;19.17;;
43529;SDS011;55654;50.966;6.878;2022-11-20T06:53:30;33.17;;;20.33;;
43529;SDS011;55654;50.966;6.878;2022-11-20T06:55:56;32.17;;;18.33;;
43529;SDS011;55654;50.966;6.878;2022-11-20T06:58:29;33.10;;;19.87;;
43529;SDS011;55654;50.966;6.878;2022-11-20T07:00:59;31.47;;;19.00;;
43529;SDS011;55654;50.966;6.878;2022-11-20T07:03:25;36.63;;;20.67;;
43529;SDS011;55654;50.966;6.878;2022-11-20T07:06:02;33.73;;;20.43;;
43529;SDS011;55654;50.966;6.878;2022-11-20T07:08:35;29.63;;;18.30;;
43529;SDS011;55654;50.966;6.878;2022-11-20T07:11:02;33.33;;;20.05;;
43529;SDS011;55654;50.966;6.878;2022-11-20T07:13:28;31.00;;;18.50;;
43529;SDS011;55654;50.966;6.878;2022-11-20T07:15:55;32.63;;;20.90;;
43529;SDS011;55654;50.966;6.878;2022-11-20T07:18:24;34.50;;;20.17;;
43529;SDS011;55654;50.966;6.878;2022-11-20T07:20:50;34.07;;;20.73;;
43529;SDS011;55654;50.966;6.878;2022-11-20T07:23:19;37.83;;;20.83;;
43529;SDS011;55654;50.966;6.878;2022-11-20T07:25:45;35.07;;;20.70;;
43529;SDS011;55654;50.966;6.878;2022-11-20T07:28:11;36.40;;;21.37;;
43529;SDS011;55654;50.966;6.878;2022-11-20T07:30:38;33.93;;;20.13;;
43529;SDS011;55654;50.966;6.878;2022-11-20T07:33:04;33.30;;;19.80;;
43529;SDS011;55654;50.966;6.878;2022-11-20T07:35:31;35.23;;;19.27;;
43529;SDS011;55654;50.966;6.878;2022-11-20T07:38:00;31.43;;;18.97;;
43529;SDS011;55654;50.966;6.878;2022-11-20T07:40:26;34.63;;;20.07;;
43529;SDS011;55654;50.966;6.878;2022-11-20T07:42:52;33.53;;;19.83;;
43529;SDS011;55654;50.966;6.878;2022-11-20T07:45:19;31.37;;;19.50;;
43529;SDS011;55654;50.966;6.878;2022-11-20T07:47:45;36.83;;;20.80;;
43529;SDS011;55654;50.966;6.878;2022-11-20T07:50:12;38.43;;;20.33;;
43529;SDS011;55654;50.966;6.878;2022-11-20T07:52:38;33.87;;;19.63;;
43529;SDS011;55654;50.966;6.878;2022-11-20T07:55:05;33.00;;;20.80;;
43529;SDS011;55654;50.966;6.878;2022-11-20T07:57:31;35.80;;;21.33;;
43529;SDS011;55654;50.966;6.878;2022-11-20T07:59:57;33.93;;;20.73;;
43529;SDS011;55654;50.966;6.878;2022-11-20T08:02:23;33.00;;;20.10;;
43529;SDS011;55654;50.966;6.878;2022-11-20T08:04:49;34.93;;;20.07;;
43529;SDS011;55654;50.966;6.878;2022-11-20T08:07:18;37.60;;;22.00;;
43529;SDS011;55654;50.966;6.878;2022-11-20T08:09:44;33.33;;;21.03;;
43529;SDS011;55654;50.966;6.878;2022-11-20T08:12:16;35.47;;;19.27;;
43529;SDS011;55654;50.966;6.878;2022-11-20T08:15:09;34.57;;;20.10;;
43529;SDS011;55654;50.966;6.878;2022-11-20T08:17:35;34.00;;;20.53;;
43529;SDS011;55654;50.966;6.878;2022-11-20T08:20:01;35.57;;;19.30;;
43529;SDS011;55654;50.966;6.878;2022-11-20T08:22:27;35.47;;;20.90;;
43529;SDS011;55654;50.966;6.878;2022-11-20T08:24:53;30.77;;;17.40;;
43529;SDS011;55654;50.966;6.878;2022-11-20T08:27:19;28.00;;;16.80;;
43529;SDS011;55654;50.966;6.878;2022-11-20T08:29:45;24.90;;;15.10;;
43529;SDS011;55654;50.966;6.878;2022-11-20T08:32:13;28.30;;;15.23;;
43529;SDS011;55654;50.966;6.878;2022-11-20T08:34:39;27.33;;;16.70;;
43529;SDS011;55654;50.966;6.878;2022-11-20T08:37:05;27.83;;;15.57;;
43529;SDS011;55654;50.966;6.878;2022-11-20T08:39:31;28.10;;;17.13;;
43529;SDS011;55654;50.966;6.878;2022-11-20T08:41:57;24.70;;;15.50;;
43529;SDS011;55654;50.966;6.878;2022-11-20T08:44:23;24.43;;;14.43;;
43529;SDS011;55654;50.966;6.878;2022-11-20T08:46:49;24.07;;;13.33;;
43529;SDS011;55654;50.966;6.878;2022-11-20T08:49:15;21.20;;;12.27;;
43529;SDS011;55654;50.966;6.878;2022-11-20T08:51:45;20.27;;;12.80;;
43529;SDS011;55654;50.966;6.878;2022-11-20T08:54:16;26.07;;;15.03;;
43529;SDS011;55654;50.966;6.878;2022-11-20T08:56:44;19.07;;;12.67;;
43529;SDS011;55654;50.966;6.878;2022-11-20T08:59:10;21.73;;;13.53;;
43529;SDS011;55654;50.966;6.878;2022-11-20T09:01:36;17.77;;;11.87;;
43529;SDS011;55654;50.966;6.878;2022-11-20T09:04:02;16.67;;;10.37;;
43529;SDS011;55654;50.966;6.878;2022-11-20T09:06:29;19.67;;;12.37;;
43529;SDS011;55654;50.966;6.878;2022-11-20T09:08:55;19.30;;;11.83;;
43529;SDS011;55654;50.966;6.878;2022-11-20T09:11:22;20.33;;;13.03;;
43529;SDS011;55654;50.966;6.878;2022-11-20T09:13:50;22.70;;;14.07;;
43529;SDS011;55654;50.966;6.878;2022-11-20T09:16:16;23.27;;;14.00;;
43529;SDS011;55654;50.966;6.878;2022-11-20T09:18:42;27.67;;;15.50;;
43529;SDS011;55654;50.966;6.878;2022-11-20T09:21:09;25.50;;;15.30;;
43529;SDS011;55654;50.966;6.878;2022-11-20T09:23:36;26.90;;;15.10;;
43529;SDS011;55654;50.966;6.878;2022-11-20T09:26:06;26.60;;;15.73;;
43529;SDS011;55654;50.966;6.878;2022-11-20T09:28:35;29.07;;;15.93;;
43529;SDS011;55654;50.966;6.878;2022-11-20T09:31:04;26.60;;;15.87;;
43529;SDS011;55654;50.966;6.878;2022-11-20T09:33:30;26.40;;;16.03;;
43529;SDS011;55654;50.966;6.878;2022-11-20T09:35:56;24.23;;;15.03;;
43529;SDS011;55654;50.966;6.878;2022-11-20T09:38:22;23.80;;;14.53;;
43529;SDS011;55654;50.966;6.878;2022-11-20T09:41:00;22.17;;;13.63;;
43529;SDS011;55654;50.966;6.878;2022-11-20T09:46:14;25.67;;;14.50;;
43529;SDS011;55654;50.966;6.878;2022-11-20T09:56:33;23.57;;;15.00;;
43529;SDS011;55654;50.966;6.878;2022-11-20T09:59:13;24.73;;;14.63;;
43529;SDS011;55654;50.966;6.878;2022-11-20T10:01:50;27.80;;;16.20;;
43529;SDS011;55654;50.966;6.878;2022-11-20T10:04:16;25.20;;;15.73;;
43529;SDS011;55654;50.966;6.878;2022-11-20T10:06:48;24.63;;;15.20;;
43529;SDS011;55654;50.966;6.878;2022-11-20T10:14:52;26.63;;;16.47;;
43529;SDS011;55654;50.966;6.878;2022-11-20T10:17:41;26.60;;;15.97;;
43529;SDS011;55654;50.966;6.878;2022-11-20T10:23:06;27.20;;;16.43;;
43529;SDS011;55654;50.966;6.878;2022-11-20T10:25:41;26.13;;;16.42;;
43529;SDS011;55654;50.966;6.878;2022-11-20T10:28:34;28.87;;;17.23;;
43529;SDS011;55654;50.966;6.878;2022-11-20T10:31:08;29.27;;;17.43;;
43529;SDS011;55654;50.966;6.878;2022-11-20T10:33:36;27.47;;;16.50;;
43529;SDS011;55654;50.966;6.878;2022-11-20T10:41:02;26.97;;;16.27;;
43529;SDS011;55654;50.966;6.878;2022-11-20T10:43:48;30.10;;;17.37;;
43529;SDS011;55654;50.966;6.878;2022-11-20T10:46:17;29.50;;;17.53;;
43529;SDS011;55654;50.966;6.878;2022-11-20T10:48:44;28.70;;;17.13;;
43529;SDS011;55654;50.966;6.878;2022-11-20T10:56:41;28.17;;;16.67;;
43529;SDS011;55654;50.966;6.878;2022-11-20T11:01:52;30.20;;;16.63;;
43529;SDS011;55654;50.966;6.878;2022-11-20T11:04:41;27.33;;;17.40;;
43529;SDS011;55654;50.966;6.878;2022-11-20T11:07:25;31.97;;;19.20;;
43529;SDS011;55654;50.966;6.878;2022-11-20T11:09:53;32.80;;;19.20;;
43529;SDS011;55654;50.966;6.878;2022-11-20T11:12:21;35.63;;;20.23;;
43529;SDS011;55654;50.966;6.878;2022-11-20T11:17:20;29.40;;;17.93;;
43529;SDS011;55654;50.966;6.878;2022-11-20T11:19:56;29.63;;;17.67;;
43529;SDS011;55654;50.966;6.878;2022-11-20T11:22:22;27.77;;;17.23;;
43529;SDS011;55654;50.966;6.878;2022-11-20T11:24:52;32.33;;;18.60;;
43529;SDS011;55654;50.966;6.878;2022-11-20T11:27:18;28.87;;;17.20;;
43529;SDS011;55654;50.966;6.878;2022-11-20T11:29:44;29.43;;;17.83;;
43529;SDS011;55654;50.966;6.878;2022-11-20T11:34:37;33.30;;;18.53;;
43529;SDS011;55654;50.966;6.878;2022-11-20T11:37:03;36.63;;;22.60;;
43529;SDS011;55654;50.966;6.878;2022-11-20T11:39:30;31.20;;;18.67;;
43529;SDS011;55654;50.966;6.878;2022-11-20T11:41:59;31.50;;;18.37;;
43529;SDS011;55654;50.966;6.878;2022-11-20T11:49:46;32.23;;;19.30;;
43529;SDS011;55654;50.966;6.878;2022-11-20T11:57:32;32.23;;;18.90;;
43529;SDS011;55654;50.966;6.878;2022-11-20T12:00:13;31.50;;;18.60;;
43529;SDS011;55654;50.966;6.878;2022-11-20T12:07:42;34.23;;;20.27;;
43529;SDS011;55654;50.966;6.878;2022-11-20T12:10:14;32.47;;;19.73;;
43529;SDS011;55654;50.966;6.878;2022-11-20T12:12:44;33.83;;;19.83;;
43529;SDS011;55654;50.966;6.878;2022-11-20T12:15:11;34.10;;;19.43;;
43529;SDS011;55654;50.966;6.878;2022-11-20T12:17:37;35.97;;;19.40;;
43529;SDS011;55654;50.966;6.878;2022-11-20T12:20:05;31.67;;;18.60;;
43529;SDS011;55654;50.966;6.878;2022-11-20T12:22:34;29.70;;;18.43;;
43529;SDS011;55654;50.966;6.878;2022-11-20T12:30:14;34.17;;;19.10;;
43529;SDS011;55654;50.966;6.878;2022-11-20T12:40:35;29.80;;;18.27;;
43529;SDS011;55654;50.966;6.878;2022-11-20T12:43:11;30.80;;;17.87;;
43529;SDS011;55654;50.966;6.878;2022-11-20T12:46:06;30.70;;;19.17;;
43529;SDS011;55654;50.966;6.878;2022-11-20T12:51:11;30.10;;;18.30;;
43529;SDS011;55654;50.966;6.878;2022-11-20T12:53:46;32.03;;;18.88;;
43529;SDS011;55654;50.966;6.878;2022-11-20T13:06:47;31.10;;;18.05;;
43529;SDS011;55654;50.966;6.878;2022-11-20T13:09:17;27.50;;;16.73;;
43529;SDS011;55654;50.966;6.878;2022-11-20T13:11:48;27.07;;;16.60;;
43529;SDS011;55654;50.966;6.878;2022-11-20T13:14:29;27.90;;;16.67;;
43529;SDS011;55654;50.966;6.878;2022-11-20T13:19:37;30.80;;;18.10;;
43529;SDS011;55654;50.966;6.878;2022-11-20T13:22:03;28.80;;;16.73;;
43529;SDS011;55654;50.966;6.878;2022-11-20T13:24:30;28.10;;;17.53;;
43529;SDS011;55654;50.966;6.878;2022-11-20T13:27:17;28.70;;;17.00;;
43529;SDS011;55654;50.966;6.878;2022-11-20T13:29:45;30.03;;;17.57;;
43529;SDS011;55654;50.966;6.878;2022-11-20T13:32:18;28.87;;;17.93;;
43529;SDS011;55654;50.966;6.878;2022-11-20T13:34:52;28.27;;;17.23;;
43529;SDS011;55654;50.966;6.878;2022-11-20T13:40:04;30.40;;;16.97;;
43529;SDS011;55654;50.966;6.878;2022-11-20T13:42:30;28.67;;;17.40;;
43529;SDS011;55654;50.966;6.878;2022-11-20T13:45:00;30.63;;;17.73;;
43529;SDS011;55654;50.966;6.878;2022-11-20T13:47:30;28.03;;;17.23;;
43529;SDS011;55654;50.966;6.878;2022-11-20T13:49:57;27.40;;;16.67;;
43529;SDS011;55654;50.966;6.878;2022-11-20T13:52:42;27.10;;;16.37;;
43529;SDS011;55654;50.966;6.878;2022-11-20T13:55:21;29.67;;;17.90;;
43529;SDS011;55654;50.966;6.878;2022-11-20T14:00:22;28.67;;;18.00;;
43529;SDS011;55654;50.966;6.878;2022-11-20T14:02:53;28.90;;;17.00;;
43529;SDS011;55654;50.966;6.878;2022-11-20T14:05:24;29.37;;;18.00;;
43529;SDS011;55654;50.966;6.878;2022-11-20T14:07:50;28.57;;;17.50;;
43529;SDS011;55654;50.966;6.878;2022-11-20T14:10:21;28.57;;;17.30;;
43529;SDS011;55654;50.966;6.878;2022-11-20T14:12:48;30.87;;;17.70;;
43529;SDS011;55654;50.966;6.878;2022-11-20T14:17:51;29.10;;;17.93;;
43529;SDS011;55654;50.966;6.878;2022-11-20T14:20:17;31.57;;;18.30;;
43529;SDS011;55654;50.966;6.878;2022-11-20T14:22:48;29.87;;;17.83;;
43529;SDS011;55654;50.966;6.878;2022-11-20T14:27:44;29.07;;;18.10;;
43529;SDS011;55654;50.966;6.878;2022-11-20T14:30:17;31.73;;;18.53;;
43529;SDS011;55654;50.966;6.878;2022-11-20T14:32:44;29.80;;;17.63;;
43529;SDS011;55654;50.966;6.878;2022-11-20T14:35:14;30.07;;;17.30;;
43529;SDS011;55654;50.966;6.878;2022-11-20T14:37:44;32.87;;;19.67;;
43529;SDS011;55654;50.966;6.878;2022-11-20T14:42:51;29.40;;;18.20;;
43529;SDS011;55654;50.966;6.878;2022-11-20T14:45:18;30.43;;;17.23;;
43529;SDS011;55654;50.966;6.878;2022-11-20T14:47:44;29.80;;;17.13;;
43529;SDS011;55654;50.966;6.878;2022-11-20T14:50:16;31.67;;;17.00;;
43529;SDS011;55654;50.966;6.878;2022-11-20T14:55:13;28.03;;;17.30;;
43529;SDS011;55654;50.966;6.878;2022-11-20T14:57:39;31.90;;;17.60;;
43529;SDS011;55654;50.966;6.878;2022-11-20T15:02:32;30.53;;;18.00;;
43529;SDS011;55654;50.966;6.878;2022-11-20T15:04:58;30.80;;;17.80;;
43529;SDS011;55654;50.966;6.878;2022-11-20T15:07:27;30.63;;;17.27;;
43529;SDS011;55654;50.966;6.878;2022-11-20T15:10:10;31.07;;;17.67;;
43529;SDS011;55654;50.966;6.878;2022-11-20T15:12:40;30.83;;;17.83;;
43529;SDS011;55654;50.966;6.878;2022-11-20T15:15:11;31.63;;;18.17;;
43529;SDS011;55654;50.966;6.878;2022-11-20T15:17:41;27.90;;;16.87;;
43529;SDS011;55654;50.966;6.878;2022-11-20T15:20:14;32.37;;;18.50;;
43529;SDS011;55654;50.966;6.878;2022-11-20T15:22:40;32.47;;;19.33;;
43529;SDS011;55654;50.966;6.878;2022-11-20T15:25:19;36.40;;;20.00;;
43529;SDS011;55654;50.966;6.878;2022-11-20T15:27:45;32.07;;;19.10;;
43529;SDS011;55654;50.966;6.878;2022-11-20T15:32:40;36.30;;;20.63;;
43529;SDS011;55654;50.966;6.878;2022-11-20T15:35:07;38.63;;;21.60;;
43529;SDS011;55654;50.966;6.878;2022-11-20T15:37:33;36.93;;;20.90;;
43529;SDS011;55654;50.966;6.878;2022-11-20T15:39:59;40.47;;;23.50;;
43529;SDS011;55654;50.966;6.878;2022-11-20T15:42:25;47.47;;;23.60;;
43529;SDS011;55654;50.966;6.878;2022-11-20T15:44:51;41.10;;;22.00;;
43529;SDS011;55654;50.966;6.878;2022-11-20T15:47:17;38.73;;;22.10;;
43529;SDS011;55654;50.966;6.878;2022-11-20T15:49:43;42.37;;;22.80;;
43529;SDS011;55654;50.966;6.878;2022-11-20T15:52:09;45.30;;;23.17;;
43529;SDS011;55654;50.966;6.878;2022-11-20T15:54:35;37.27;;;21.23;;
43529;SDS011;55654;50.966;6.878;2022-11-20T15:57:01;37.83;;;21.63;;
43529;SDS011;55654;50.966;6.878;2022-11-20T15:59:27;39.43;;;22.70;;
43529;SDS011;55654;50.966;6.878;2022-11-20T16:01:54;40.37;;;23.23;;
43529;SDS011;55654;50.966;6.878;2022-11-20T16:04:21;41.33;;;23.60;;
43529;SDS011;55654;50.966;6.878;2022-11-20T16:06:47;44.80;;;23.43;;
43529;SDS011;55654;50.966;6.878;2022-11-20T16:09:13;44.13;;;23.20;;
43529;SDS011;55654;50.966;6.878;2022-11-20T16:11:42;42.23;;;23.10;;
43529;SDS011;55654;50.966;6.878;2022-11-20T16:14:09;42.03;;;22.03;;
43529;SDS011;55654;50.966;6.878;2022-11-20T16:16:54;40.60;;;21.13;;
43529;SDS011;55654;50.966;6.878;2022-11-20T16:19:20;41.30;;;22.00;;
43529;SDS011;55654;50.966;6.878;2022-11-20T16:21:46;39.63;;;22.43;;
43529;SDS011;55654;50.966;6.878;2022-11-20T16:24:12;43.87;;;22.27;;
43529;SDS011;55654;50.966;6.878;2022-11-20T16:26:42;44.00;;;21.97;;
43529;SDS011;55654;50.966;6.878;2022-11-20T16:29:13;44.57;;;21.70;;